Time;durP1;ratioP1;P1;durP2;ratioP2;P2;SDS_P1;SDS_P2;PMS_P1;PMS_P2;Temp;Humidity;BMP_temperature;BMP_pressure;BME280_temperature;BME280_humidity;BME280_pressure;Samples;Min_cycle;Max_cycle;Signal;HPM_P1;HPM_P2
2022/04/29 00:00:38;;;;;;;19.02;6.65;;;;;;;;;;5010813;28;95532;-78
2022/04/29 00:03:07;;;;;;;12.23;6.15;;;;;;;;;;5012295;28;95920;-78
2022/04/29 00:05:34;;;;;;;14.30;6.07;;;;;;;;;;5011825;28;97351;-78
2022/04/29 00:08:01;;;;;;;14.82;6.70;;;;;;;;;;5015038;28;95372;-79
2022/04/29 00:10:27;;;;;;;12.18;6.60;;;;;;;;;;5010226;28;96971;-79
2022/04/29 00:12:54;;;;;;;13.45;6.68;;;;;;;;;;5011650;28;96667;-80
2022/04/29 00:15:20;;;;;;;12.05;6.63;;;;;;;;;;5011820;28;95722;-79
2022/04/29 00:17:47;;;;;;;15.23;6.75;;;;;;;;;;5011661;28;97365;-80
2022/04/29 00:20:14;;;;;;;14.27;6.28;;;;;;;;;;5009345;28;95666;-78
2022/04/29 00:22:41;;;;;;;13.32;6.60;;;;;;;;;;5008652;28;96729;-79
2022/04/29 00:25:08;;;;;;;12.45;6.78;;;;;;;;;;5011893;28;97151;-77
2022/04/29 00:27:35;;;;;;;12.23;6.75;;;;;;;;;;5011196;28;95119;-80
2022/04/29 00:30:01;;;;;;;16.13;6.25;;;;;;;;;;5013605;28;95151;-77
2022/04/29 00:32:28;;;;;;;16.95;7.10;;;;;;;;;;5011543;28;95001;-77
2022/04/29 00:34:54;;;;;;;16.42;6.78;;;;;;;;;;5013769;28;96620;-77
2022/04/29 00:37:20;;;;;;;16.33;7.07;;;;;;;;;;5014958;28;97074;-78
2022/04/29 00:39:47;;;;;;;13.85;7.07;;;;;;;;;;5014307;28;95244;-76
2022/04/29 00:42:18;;;;;;;16.42;6.80;;;;;;;;;;5014741;28;96524;-76
2022/04/29 00:44:44;;;;;;;15.43;7.30;;;;;;;;;;5015386;28;97391;-77
2022/04/29 00:47:15;;;;;;;14.30;7.32;;;;;;;;;;5014765;28;95386;-75
2022/04/29 00:49:42;;;;;;;12.32;6.78;;;;;;;;;;5013625;28;96615;-78
2022/04/29 00:52:16;;;;;;;18.48;6.85;;;;;;;;;;5016228;28;97219;-77
2022/04/29 00:54:45;;;;;;;15.57;6.97;;;;;;;;;;5014591;28;96880;-74
2022/04/29 00:57:17;;;;;;;16.63;7.05;;;;;;;;;;5014362;28;97095;-75
2022/04/29 00:59:52;;;;;;;15.23;6.70;;;;;;;;;;5014484;28;95210;-77
2022/04/29 01:02:19;;;;;;;15.32;6.63;;;;;;;;;;5014131;28;96770;-74
2022/04/29 01:04:48;;;;;;;13.32;6.80;;;;;;;;;;5014242;28;97610;-75
2022/04/29 01:07:15;;;;;;;22.38;8.07;;;;;;;;;;5015198;28;96219;-74
2022/04/29 01:09:41;;;;;;;15.48;6.70;;;;;;;;;;5013497;28;97168;-76
2022/04/29 01:12:08;;;;;;;9.90;6.00;;;;;;;;;;4996682;28;97325;-77
2022/04/29 01:14:35;;;;;;;16.58;6.70;;;;;;;;;;5018191;28;96196;-77
2022/04/29 01:17:01;;;;;;;17.02;7.55;;;;;;;;;;5013887;28;97305;-76
2022/04/29 01:19:30;;;;;;;12.43;7.22;;;;;;;;;;5013156;28;95980;-76
2022/04/29 01:22:00;;;;;;;17.55;7.25;;;;;;;;;;5014374;28;96820;-78
2022/04/29 01:24:26;;;;;;;14.15;6.85;;;;;;;;;;5013983;28;97263;-75
2022/04/29 01:26:52;;;;;;;13.07;7.47;;;;;;;;;;5014620;28;95272;-75
2022/04/29 01:29:19;;;;;;;14.35;7.70;;;;;;;;;;5012651;28;96009;-74
2022/04/29 01:31:48;;;;;;;16.52;7.80;;;;;;;;;;5013467;28;97353;-76
2022/04/29 01:34:14;;;;;;;22.83;7.05;;;;;;;;;;5014018;28;95337;-76
2022/04/29 01:36:40;;;;;;;21.35;7.95;;;;;;;;;;5017588;28;96789;-75
2022/04/29 01:39:07;;;;;;;18.30;7.80;;;;;;;;;;5013320;28;95915;-74
2022/04/29 01:41:34;;;;;;;18.50;7.50;;;;;;;;;;5013822;28;96767;-74
2022/04/29 01:44:00;;;;;;;21.38;7.90;;;;;;;;;;5013966;28;97320;-73
2022/04/29 01:46:27;;;;;;;13.38;7.00;;;;;;;;;;5013198;28;95350;-74
2022/04/29 01:48:53;;;;;;;22.08;8.10;;;;;;;;;;5013367;28;96953;-72
2022/04/29 01:51:19;;;;;;;14.25;7.68;;;;;;;;;;5011757;28;97526;-73
2022/04/29 01:53:53;;;;;;;11.02;7.10;;;;;;;;;;5014011;28;95223;-72
2022/04/29 01:56:20;;;;;;;17.40;7.40;;;;;;;;;;5013891;28;97150;-74
2022/04/29 01:58:47;;;;;;;19.10;8.02;;;;;;;;;;5015623;28;97523;-73
2022/04/29 02:01:13;;;;;;;16.25;7.38;;;;;;;;;;5014429;28;96867;-74
2022/04/29 02:03:39;;;;;;;18.27;8.15;;;;;;;;;;5011911;28;96703;-74
2022/04/29 02:06:06;;;;;;;15.45;7.65;;;;;;;;;;5013009;28;94921;-75
2022/04/29 02:08:32;;;;;;;16.73;7.93;;;;;;;;;;5009662;28;95875;-74
2022/04/29 02:10:59;;;;;;;18.35;7.78;;;;;;;;;;5011736;28;97697;-74
2022/04/29 02:13:25;;;;;;;16.40;7.75;;;;;;;;;;5013275;28;95367;-77
2022/04/29 02:15:51;;;;;;;21.60;8.60;;;;;;;;;;5013269;28;96916;-78
2022/04/29 02:18:18;;;;;;;18.10;8.20;;;;;;;;;;5015993;28;97599;-79
2022/04/29 02:20:44;;;;;;;18.08;8.60;;;;;;;;;;5003369;28;96665;-78
2022/04/29 02:23:10;;;;;;;19.25;8.15;;;;;;;;;;5013424;28;97612;-77
2022/04/29 02:25:36;;;;;;;19.10;8.45;;;;;;;;;;5013779;28;95412;-77
2022/04/29 02:28:04;;;;;;;13.85;8.43;;;;;;;;;;5012928;28;96099;-79
2022/04/29 02:30:31;;;;;;;15.43;8.30;;;;;;;;;;5012600;28;97146;-79
2022/04/29 02:32:57;;;;;;;18.80;8.45;;;;;;;;;;5012372;28;95379;-79
2022/04/29 02:35:23;;;;;;;16.23;8.38;;;;;;;;;;5012861;28;97208;-78
2022/04/29 02:37:49;;;;;;;16.85;8.43;;;;;;;;;;5011921;28;97344;-80
2022/04/29 02:40:16;;;;;;;16.98;8.00;;;;;;;;;;5005640;28;95403;-77
2022/04/29 02:42:42;;;;;;;19.08;8.82;;;;;;;;;;5012607;28;97479;-80
2022/04/29 02:45:09;;;;;;;27.20;9.82;;;;;;;;;;5013489;28;95260;-77
2022/04/29 02:47:35;;;;;;;15.07;7.80;;;;;;;;;;5011102;28;96807;-79
2022/04/29 02:50:01;;;;;;;19.35;8.75;;;;;;;;;;5012125;28;97318;-77
2022/04/29 02:52:28;;;;;;;15.40;8.63;;;;;;;;;;5012739;28;96475;-81
2022/04/29 02:54:54;;;;;;;22.83;9.10;;;;;;;;;;5012545;28;96861;-78
2022/04/29 02:57:20;;;;;;;25.17;8.73;;;;;;;;;;5011788;28;97743;-76
2022/04/29 02:59:47;;;;;;;21.73;9.25;;;;;;;;;;5012529;28;95403;-78
2022/04/29 03:02:13;;;;;;;15.13;8.55;;;;;;;;;;5015387;28;96884;-76
2022/04/29 03:04:40;;;;;;;18.77;8.45;;;;;;;;;;5013008;28;95262;-77
2022/04/29 03:07:06;;;;;;;21.15;8.50;;;;;;;;;;5012678;28;96805;-78
2022/04/29 03:09:32;;;;;;;17.52;7.95;;;;;;;;;;5010374;28;97308;-78
2022/04/29 03:11:59;;;;;;;19.35;8.30;;;;;;;;;;5011355;28;95228;-77
2022/04/29 03:14:25;;;;;;;20.98;8.88;;;;;;;;;;5012957;28;97035;-79
2022/04/29 03:16:51;;;;;;;18.10;9.68;;;;;;;;;;5012182;28;96951;-76
2022/04/29 03:19:18;;;;;;;30.50;9.02;;;;;;;;;;5011246;28;95549;-77
2022/04/29 03:21:44;;;;;;;21.33;9.13;;;;;;;;;;5012490;28;96726;-78
2022/04/29 03:24:11;;;;;;;15.57;8.35;;;;;;;;;;5015253;28;96129;-76
2022/04/29 03:26:37;;;;;;;15.50;8.50;;;;;;;;;;5012484;28;96849;-75
2022/04/29 03:29:04;;;;;;;20.00;9.07;;;;;;;;;;5012366;28;97711;-78
2022/04/29 03:31:30;;;;;;;20.90;9.70;;;;;;;;;;5010865;28;95578;-77
2022/04/29 03:33:57;;;;;;;22.50;8.77;;;;;;;;;;5012626;28;96727;-76
2022/04/29 03:36:24;;;;;;;17.70;9.18;;;;;;;;;;5012250;28;97570;-76
2022/04/29 03:38:50;;;;;;;19.38;8.65;;;;;;;;;;5012317;28;96223;-76
2022/04/29 03:41:16;;;;;;;17.83;8.82;;;;;;;;;;5011029;28;96795;-76
2022/04/29 03:43:43;;;;;;;21.60;8.82;;;;;;;;;;5012221;28;97281;-76
2022/04/29 03:46:09;;;;;;;21.38;9.57;;;;;;;;;;5014207;28;95122;-74
2022/04/29 03:51:21;;;;;;;23.80;8.80;;;;;;;;;;5010217;28;95320;-75
2022/04/29 03:53:48;;;;;;;17.73;8.90;;;;;;;;;;5012042;28;95527;-74
2022/04/29 03:56:15;;;;;;;20.92;9.15;;;;;;;;;;5012161;28;97336;-75
2022/04/29 03:58:41;;;;;;;21.05;8.93;;;;;;;;;;5011521;28;95390;-75
2022/04/29 04:01:08;;;;;;;25.88;9.35;;;;;;;;;;5011509;28;96617;-75
2022/04/29 04:03:34;;;;;;;17.15;9.02;;;;;;;;;;5011809;28;96954;-75
2022/04/29 04:08:46;;;;;;;21.45;9.88;;;;;;;;;;5017099;28;97782;-75
2022/04/29 04:11:12;;;;;;;17.40;8.38;;;;;;;;;;5013614;28;95789;-75
2022/04/29 04:13:38;;;;;;;15.73;8.07;;;;;;;;;;5014820;28;96846;-75
2022/04/29 04:16:04;;;;;;;19.33;8.73;;;;;;;;;;5015301;28;97409;-74
2022/04/29 04:18:32;;;;;;;23.83;8.73;;;;;;;;;;5015049;28;95323;-74
2022/04/29 19:10:08;;;;;;;14.23;6.25;;;;;;;;;;4993467;27;1318330;-74
2022/04/29 19:12:35;;;;;;;12.07;5.50;;;;;;;;;;5022110;28;97624;-74
2022/04/29 19:15:02;;;;;;;14.77;6.45;;;;;;;;;;5021825;28;95345;-74
2022/04/29 19:17:28;;;;;;;14.48;6.22;;;;;;;;;;5015788;28;97054;-77
2022/04/29 19:19:55;;;;;;;11.88;6.00;;;;;;;;;;5029635;27;96148;-77
2022/04/29 19:22:21;;;;;;;11.68;6.13;;;;;;;;;;5040227;27;95412;-72
2022/04/29 19:24:48;;;;;;;11.50;5.75;;;;;;;;;;5023134;28;97231;-72
2022/04/29 19:27:15;;;;;;;9.85;6.07;;;;;;;;;;5007003;28;97498;-73
2022/04/29 19:29:42;;;;;;;12.60;6.57;;;;;;;;;;5027384;28;95329;-73
2022/04/29 19:32:09;;;;;;;11.88;6.22;;;;;;;;;;5015083;28;97516;-73
2022/04/29 19:34:35;;;;;;;12.52;6.47;;;;;;;;;;5019017;28;96841;-73
2022/04/29 19:37:01;;;;;;;12.55;6.07;;;;;;;;;;5009356;28;96795;-73
2022/04/29 19:39:34;;;;;;;11.02;5.90;;;;;;;;;;5027374;28;97088;-72
2022/04/29 19:42:00;;;;;;;10.30;6.22;;;;;;;;;;5025829;28;95476;-74
2022/04/29 19:44:27;;;;;;;9.60;6.05;;;;;;;;;;5011148;28;97396;-74
2022/04/29 19:46:54;;;;;;;8.88;6.00;;;;;;;;;;5016562;28;97424;-74
2022/04/29 19:49:23;;;;;;;11.07;6.93;;;;;;;;;;5023314;28;95583;-74
2022/04/29 19:51:49;;;;;;;18.38;6.70;;;;;;;;;;5030421;28;96653;-74
2022/04/29 19:54:15;;;;;;;17.17;6.97;;;;;;;;;;5026050;28;95198;-73
2022/04/29 19:59:10;;;;;;;12.85;6.32;;;;;;;;;;5021277;28;95450;-74
2022/04/29 19:59:54;;;;;;;14.65;6.80;;;;;;;;;;5026782;28;98561;-74
2022/04/29 20:05:07;;;;;;;13.63;6.70;;;;;;;;;;5027658;28;96964;-74
2022/04/29 20:07:35;;;;;;;13.43;7.10;;;;;;;;;;5012160;28;97702;-74
2022/04/29 20:10:02;;;;;;;15.75;6.53;;;;;;;;;;5007420;28;95373;-75
2022/04/29 20:12:28;;;;;;;14.15;6.20;;;;;;;;;;5025043;28;97020;-74
2022/04/29 20:14:55;;;;;;;12.75;6.60;;;;;;;;;;5017474;28;96931;-78
2022/04/29 20:17:21;;;;;;;12.70;6.50;;;;;;;;;;5019498;28;97078;-75
2022/04/29 20:19:50;;;;;;;14.48;6.57;;;;;;;;;;5008036;28;97356;-77
2022/04/29 20:22:19;;;;;;;11.02;6.13;;;;;;;;;;4994167;28;95389;-76
2022/04/29 20:24:47;;;;;;;15.85;6.50;;;;;;;;;;4996184;28;96825;-75
2022/04/29 20:27:13;;;;;;;12.23;6.32;;;;;;;;;;5000030;28;97606;-77
2022/04/29 20:29:40;;;;;;;14.30;6.25;;;;;;;;;;5014526;28;95958;-75
2022/04/29 20:32:06;;;;;;;13.63;6.30;;;;;;;;;;5012873;28;96034;-75
2022/04/29 20:34:33;;;;;;;12.00;6.28;;;;;;;;;;5010056;28;97462;-74
2022/04/29 20:36:59;;;;;;;10.73;5.70;;;;;;;;;;5009648;28;95329;-75
2022/04/29 20:44:55;;;;;;;15.93;6.07;;;;;;;;;;4995293;28;97189;-75
2022/04/29 20:47:22;;;;;;;12.85;5.45;;;;;;;;;;5009166;28;97144;-74
2022/04/29 20:49:49;;;;;;;14.75;6.38;;;;;;;;;;5007611;28;95161;-74
2022/04/29 20:52:16;;;;;;;9.65;5.43;;;;;;;;;;5013262;28;96680;-75
2022/04/29 20:54:43;;;;;;;7.93;5.18;;;;;;;;;;5011275;28;97455;-75
2022/04/29 20:57:10;;;;;;;11.15;4.95;;;;;;;;;;5000956;28;95305;-74
2022/04/29 20:59:38;;;;;;;10.82;5.20;;;;;;;;;;4996675;28;96797;-75
2022/04/29 21:02:04;;;;;;;11.00;4.90;;;;;;;;;;5011915;28;95253;-74
2022/04/29 21:04:31;;;;;;;9.52;5.38;;;;;;;;;;5003200;28;96799;-74
2022/04/29 21:06:57;;;;;;;11.77;5.15;;;;;;;;;;4997572;28;97308;-75
2022/04/29 21:09:23;;;;;;;9.65;4.38;;;;;;;;;;4998452;28;96636;-75
2022/04/29 21:11:51;;;;;;;10.55;4.60;;;;;;;;;;5013996;28;98584;-75
2022/04/29 21:14:18;;;;;;;9.40;4.45;;;;;;;;;;5010019;28;96918;-75
2022/04/29 21:16:45;;;;;;;9.50;4.30;;;;;;;;;;5006324;28;95887;-75
2022/04/29 21:19:11;;;;;;;11.02;4.38;;;;;;;;;;5000054;28;96861;-75
2022/04/29 21:21:38;;;;;;;8.45;4.00;;;;;;;;;;5010016;28;95320;-73
2022/04/29 21:24:04;;;;;;;8.02;4.00;;;;;;;;;;5001013;28;97193;-75
2022/04/29 21:26:31;;;;;;;11.85;3.92;;;;;;;;;;5012842;28;97389;-74
2022/04/29 21:31:42;;;;;;;8.90;3.83;;;;;;;;;;4997756;28;97016;-75
2022/04/29 21:34:08;;;;;;;6.55;3.60;;;;;;;;;;5011180;28;97280;-74
2022/04/29 21:36:35;;;;;;;8.18;4.10;;;;;;;;;;5012961;28;95795;-75
2022/04/29 21:39:04;;;;;;;5.32;3.50;;;;;;;;;;5010293;28;97071;-75
2022/04/29 21:41:31;;;;;;;7.65;3.72;;;;;;;;;;5012741;28;96517;-76
2022/04/29 21:43:57;;;;;;;8.07;3.80;;;;;;;;;;5007225;28;96561;-74
2022/04/29 21:46:26;;;;;;;8.73;3.63;;;;;;;;;;4999027;28;97332;-75
2022/04/29 21:48:53;;;;;;;7.85;3.65;;;;;;;;;;5013779;28;95335;-76
2022/04/29 21:51:21;;;;;;;7.07;4.05;;;;;;;;;;5000450;28;96762;-73
2022/04/29 21:53:49;;;;;;;6.05;3.60;;;;;;;;;;5005396;28;96461;-73
2022/04/29 21:56:15;;;;;;;6.18;3.58;;;;;;;;;;5013930;28;95599;-73
2022/04/29 21:58:42;;;;;;;10.27;3.50;;;;;;;;;;4993735;28;95346;-73
2022/04/29 22:01:11;;;;;;;7.28;3.90;;;;;;;;;;4993672;28;98176;-74
2022/04/29 22:03:39;;;;;;;6.80;3.78;;;;;;;;;;4996796;28;95217;-73
2022/04/29 22:06:06;;;;;;;8.40;3.70;;;;;;;;;;4992528;28;97512;-73
2022/04/29 22:08:33;;;;;;;11.35;3.40;;;;;;;;;;4996909;28;95426;-74
2022/04/29 22:11:00;;;;;;;6.28;3.15;;;;;;;;;;5013497;28;97086;-74
2022/04/29 22:13:26;;;;;;;6.75;3.38;;;;;;;;;;5013236;28;97745;-74
2022/04/29 22:15:53;;;;;;;6.10;3.58;;;;;;;;;;5013562;28;95371;-74
2022/04/29 22:18:19;;;;;;;11.40;3.40;;;;;;;;;;5013790;28;95722;-74
2022/04/29 22:20:46;;;;;;;9.32;4.20;;;;;;;;;;5013369;28;98467;-74
2022/04/29 22:23:12;;;;;;;9.68;3.80;;;;;;;;;;5013229;28;95321;-74
2022/04/29 22:25:39;;;;;;;8.77;3.50;;;;;;;;;;5016326;28;96816;-74
2022/04/29 22:28:06;;;;;;;10.10;4.55;;;;;;;;;;5013715;28;96851;-74
2022/04/29 22:30:32;;;;;;;10.05;4.65;;;;;;;;;;5012506;28;96784;-74
2022/04/29 22:32:59;;;;;;;7.40;4.10;;;;;;;;;;5013522;28;96119;-74
2022/04/29 22:35:25;;;;;;;8.05;4.07;;;;;;;;;;5013404;28;95355;-75
2022/04/29 22:37:52;;;;;;;10.20;4.18;;;;;;;;;;5011906;28;96712;-74
2022/04/29 22:40:18;;;;;;;9.73;3.60;;;;;;;;;;5011624;28;97452;-74
2022/04/29 22:42:49;;;;;;;8.35;3.80;;;;;;;;;;5013037;28;95228;-74
2022/04/29 22:45:19;;;;;;;7.82;3.75;;;;;;;;;;5010695;28;96180;-74
2022/04/29 22:47:46;;;;;;;10.20;4.00;;;;;;;;;;4996195;28;97534;-74
2022/04/29 22:50:13;;;;;;;10.07;4.53;;;;;;;;;;4993439;28;96787;-75
2022/04/29 22:52:44;;;;;;;12.15;4.50;;;;;;;;;;4993891;28;96444;-74
2022/04/29 22:55:12;;;;;;;8.02;4.35;;;;;;;;;;5011704;28;95385;-75
2022/04/29 22:57:42;;;;;;;10.07;4.38;;;;;;;;;;5012406;28;96968;-75
2022/04/29 23:00:13;;;;;;;9.60;4.70;;;;;;;;;;5012802;28;96782;-74
2022/04/29 23:02:40;;;;;;;9.85;4.55;;;;;;;;;;5012619;28;95394;-75
2022/04/29 23:05:09;;;;;;;8.63;4.40;;;;;;;;;;5012823;28;96720;-74
2022/04/29 23:07:37;;;;;;;9.23;4.47;;;;;;;;;;5012345;28;96561;-74
2022/04/29 23:10:03;;;;;;;9.65;4.63;;;;;;;;;;5014827;28;95496;-75
2022/04/29 23:12:30;;;;;;;7.03;4.20;;;;;;;;;;5011788;28;97320;-74
2022/04/29 23:14:56;;;;;;;13.02;4.70;;;;;;;;;;5012790;28;95275;-75
2022/04/29 23:20:08;;;;;;;9.68;5.10;;;;;;;;;;5012121;28;97354;-75
2022/04/29 23:22:34;;;;;;;10.02;4.88;;;;;;;;;;5011881;28;95446;-74
2022/04/29 23:25:01;;;;;;;13.30;5.05;;;;;;;;;;5012375;28;96882;-74
2022/04/29 23:27:30;;;;;;;11.05;5.32;;;;;;;;;;5011063;28;97377;-74
2022/04/29 23:29:56;;;;;;;10.95;5.20;;;;;;;;;;5015699;28;95013;-74
2022/04/29 23:32:23;;;;;;;12.98;5.72;;;;;;;;;;5011126;28;97378;-74
2022/04/29 23:34:49;;;;;;;11.70;5.30;;;;;;;;;;5011717;28;95730;-74
2022/04/29 23:37:16;;;;;;;15.85;5.85;;;;;;;;;;5011867;28;96909;-74
2022/04/29 23:39:45;;;;;;;10.30;5.57;;;;;;;;;;5011852;28;97366;-73
2022/04/29 23:42:11;;;;;;;13.80;5.93;;;;;;;;;;4995236;28;95363;-73
2022/04/29 23:44:38;;;;;;;11.95;5.90;;;;;;;;;;4992231;28;97137;-73
2022/04/29 23:47:07;;;;;;;9.73;6.20;;;;;;;;;;4991459;28;97525;-73
2022/04/29 23:49:33;;;;;;;11.18;5.78;;;;;;;;;;4991854;28;95429;-73
2022/04/29 23:52:13;;;;;;;13.05;6.18;;;;;;;;;;4994564;28;96135;-73
2022/04/29 23:54:40;;;;;;;13.13;6.10;;;;;;;;;;4995786;28;95452;-74
2022/04/29 23:57:09;;;;;;;13.63;6.57;;;;;;;;;;5015548;28;96878;-73
2022/04/29 23:59:36;;;;;;;11.52;6.28;;;;;;;;;;5015434;28;97796;-73
